sensor_id;sensor_type;location;lat;lon;timestamp;P1;durP1;ratioP1;P2;durP2;ratioP2
37645;SDS011;23489;49.600;6.138;2022-09-21T00:01:11;2.83;;;2.53;;
37645;SDS011;23489;49.600;6.138;2022-09-21T00:03:56;5.68;;;2.40;;
37645;SDS011;23489;49.600;6.138;2022-09-21T00:06:27;3.80;;;2.70;;
37645;SDS011;23489;49.600;6.138;2022-09-21T00:08:55;4.97;;;2.80;;
37645;SDS011;23489;49.600;6.138;2022-09-21T00:11:22;3.22;;;2.45;;
37645;SDS011;23489;49.600;6.138;2022-09-21T00:13:53;4.55;;;3.50;;
37645;SDS011;23489;49.600;6.138;2022-09-21T00:16:21;4.70;;;3.30;;
37645;SDS011;23489;49.600;6.138;2022-09-21T00:18:48;4.45;;;3.38;;
37645;SDS011;23489;49.600;6.138;2022-09-21T00:21:14;5.13;;;3.30;;
37645;SDS011;23489;49.600;6.138;2022-09-21T00:23:40;4.25;;;2.63;;
37645;SDS011;23489;49.600;6.138;2022-09-21T00:26:07;4.95;;;2.25;;
37645;SDS011;23489;49.600;6.138;2022-09-21T00:28:38;6.85;;;2.67;;
37645;SDS011;23489;49.600;6.138;2022-09-21T00:31:05;5.05;;;2.80;;
37645;SDS011;23489;49.600;6.138;2022-09-21T00:33:36;6.13;;;3.05;;
37645;SDS011;23489;49.600;6.138;2022-09-21T00:36:07;4.30;;;2.60;;
37645;SDS011;23489;49.600;6.138;2022-09-21T00:38:36;6.55;;;2.80;;
37645;SDS011;23489;49.600;6.138;2022-09-21T00:41:03;4.53;;;3.08;;
37645;SDS011;23489;49.600;6.138;2022-09-21T00:43:34;6.03;;;3.17;;
37645;SDS011;23489;49.600;6.138;2022-09-21T00:46:12;4.80;;;3.10;;
37645;SDS011;23489;49.600;6.138;2022-09-21T00:48:55;5.72;;;3.33;;
37645;SDS011;23489;49.600;6.138;2022-09-21T00:51:22;6.43;;;3.20;;
37645;SDS011;23489;49.600;6.138;2022-09-21T00:53:48;5.85;;;3.20;;
37645;SDS011;23489;49.600;6.138;2022-09-21T00:56:18;5.13;;;3.10;;
37645;SDS011;23489;49.600;6.138;2022-09-21T00:58:45;6.15;;;3.53;;
37645;SDS011;23489;49.600;6.138;2022-09-21T01:01:14;4.38;;;3.28;;
37645;SDS011;23489;49.600;6.138;2022-09-21T01:03:43;4.90;;;3.05;;
37645;SDS011;23489;49.600;6.138;2022-09-21T01:06:13;4.45;;;3.08;;
37645;SDS011;23489;49.600;6.138;2022-09-21T01:08:42;5.13;;;2.90;;
37645;SDS011;23489;49.600;6.138;2022-09-21T01:11:19;5.03;;;3.10;;
37645;SDS011;23489;49.600;6.138;2022-09-21T01:17:13;5.57;;;3.25;;
37645;SDS011;23489;49.600;6.138;2022-09-21T01:31:46;5.53;;;3.42;;
37645;SDS011;23489;49.600;6.138;2022-09-21T01:34:20;4.05;;;3.38;;
37645;SDS011;23489;49.600;6.138;2022-09-21T01:37:09;6.00;;;3.80;;
37645;SDS011;23489;49.600;6.138;2022-09-21T01:39:41;5.60;;;3.70;;
37645;SDS011;23489;49.600;6.138;2022-09-21T01:42:11;10.18;;;4.10;;
37645;SDS011;23489;49.600;6.138;2022-09-21T01:44:38;6.65;;;3.50;;
37645;SDS011;23489;49.600;6.138;2022-09-21T01:47:06;6.45;;;3.72;;
37645;SDS011;23489;49.600;6.138;2022-09-21T01:49:37;7.07;;;3.92;;
37645;SDS011;23489;49.600;6.138;2022-09-21T01:52:25;6.95;;;4.43;;
37645;SDS011;23489;49.600;6.138;2022-09-21T01:55:02;7.05;;;4.13;;
37645;SDS011;23489;49.600;6.138;2022-09-21T01:57:35;7.32;;;4.20;;
37645;SDS011;23489;49.600;6.138;2022-09-21T02:00:03;4.40;;;4.00;;
37645;SDS011;23489;49.600;6.138;2022-09-21T02:02:45;4.93;;;4.28;;
37645;SDS011;23489;49.600;6.138;2022-09-21T02:05:20;7.70;;;4.10;;
37645;SDS011;23489;49.600;6.138;2022-09-21T02:07:49;6.10;;;3.85;;
37645;SDS011;23489;49.600;6.138;2022-09-21T02:13:13;5.10;;;3.35;;
37645;SDS011;23489;49.600;6.138;2022-09-21T02:26:52;4.25;;;3.55;;
37645;SDS011;23489;49.600;6.138;2022-09-21T02:34:57;8.13;;;3.75;;
37645;SDS011;23489;49.600;6.138;2022-09-21T02:42:34;4.05;;;3.65;;
37645;SDS011;23489;49.600;6.138;2022-09-21T02:45:06;7.40;;;4.65;;
37645;SDS011;23489;49.600;6.138;2022-09-21T02:50:19;5.20;;;4.18;;
37645;SDS011;23489;49.600;6.138;2022-09-21T02:52:51;5.55;;;4.28;;
37645;SDS011;23489;49.600;6.138;2022-09-21T02:55:18;6.30;;;3.80;;
37645;SDS011;23489;49.600;6.138;2022-09-21T02:57:45;8.45;;;4.20;;
37645;SDS011;23489;49.600;6.138;2022-09-21T03:00:13;9.27;;;4.20;;
37645;SDS011;23489;49.600;6.138;2022-09-21T03:02:41;5.93;;;4.30;;
37645;SDS011;23489;49.600;6.138;2022-09-21T03:05:08;4.88;;;3.95;;
37645;SDS011;23489;49.600;6.138;2022-09-21T03:07:35;8.63;;;4.75;;
37645;SDS011;23489;49.600;6.138;2022-09-21T03:10:01;6.25;;;4.40;;
37645;SDS011;23489;49.600;6.138;2022-09-21T03:12:28;6.55;;;4.18;;
37645;SDS011;23489;49.600;6.138;2022-09-21T03:14:54;5.95;;;4.05;;
37645;SDS011;23489;49.600;6.138;2022-09-21T03:17:20;7.55;;;4.65;;
37645;SDS011;23489;49.600;6.138;2022-09-21T03:19:46;7.00;;;4.60;;
37645;SDS011;23489;49.600;6.138;2022-09-21T03:22:11;6.05;;;4.25;;
37645;SDS011;23489;49.600;6.138;2022-09-21T03:24:37;6.43;;;4.07;;
37645;SDS011;23489;49.600;6.138;2022-09-21T03:27:16;5.50;;;4.53;;
37645;SDS011;23489;49.600;6.138;2022-09-21T03:29:43;8.77;;;4.18;;
37645;SDS011;23489;49.600;6.138;2022-09-21T03:32:09;9.52;;;4.22;;
37645;SDS011;23489;49.600;6.138;2022-09-21T03:34:35;8.07;;;4.25;;
37645;SDS011;23489;49.600;6.138;2022-09-21T03:37:01;3.88;;;3.17;;
37645;SDS011;23489;49.600;6.138;2022-09-21T03:39:28;6.13;;;3.60;;
37645;SDS011;23489;49.600;6.138;2022-09-21T03:41:54;5.93;;;3.83;;
37645;SDS011;23489;49.600;6.138;2022-09-21T03:44:21;6.35;;;3.92;;
37645;SDS011;23489;49.600;6.138;2022-09-21T03:46:47;7.05;;;3.97;;
37645;SDS011;23489;49.600;6.138;2022-09-21T03:49:14;4.38;;;3.85;;
37645;SDS011;23489;49.600;6.138;2022-09-21T03:51:40;6.88;;;3.90;;
37645;SDS011;23489;49.600;6.138;2022-09-21T03:54:06;4.03;;;3.63;;
37645;SDS011;23489;49.600;6.138;2022-09-21T03:56:32;6.65;;;3.55;;
37645;SDS011;23489;49.600;6.138;2022-09-21T03:58:57;4.07;;;3.40;;
37645;SDS011;23489;49.600;6.138;2022-09-21T04:01:23;4.57;;;4.07;;
37645;SDS011;23489;49.600;6.138;2022-09-21T04:03:49;5.35;;;4.43;;
37645;SDS011;23489;49.600;6.138;2022-09-21T04:06:14;6.95;;;4.65;;
37645;SDS011;23489;49.600;6.138;2022-09-21T04:08:40;5.57;;;4.60;;
37645;SDS011;23489;49.600;6.138;2022-09-21T04:11:12;6.70;;;4.28;;
37645;SDS011;23489;49.600;6.138;2022-09-21T04:13:48;7.43;;;4.85;;
37645;SDS011;23489;49.600;6.138;2022-09-21T04:16:17;9.93;;;5.25;;
37645;SDS011;23489;49.600;6.138;2022-09-21T04:18:42;7.25;;;4.85;;
37645;SDS011;23489;49.600;6.138;2022-09-21T04:21:08;6.40;;;4.90;;
37645;SDS011;23489;49.600;6.138;2022-09-21T05:12:30;5.93;;;4.20;;
37645;SDS011;23489;49.600;6.138;2022-09-21T05:14:59;8.35;;;5.88;;
37645;SDS011;23489;49.600;6.138;2022-09-21T05:17:25;10.43;;;6.50;;
37645;SDS011;23489;49.600;6.138;2022-09-21T05:19:51;8.50;;;6.22;;
37645;SDS011;23489;49.600;6.138;2022-09-21T05:22:17;8.02;;;6.70;;
37645;SDS011;23489;49.600;6.138;2022-09-21T05:24:44;9.93;;;6.50;;
37645;SDS011;23489;49.600;6.138;2022-09-21T05:27:10;8.23;;;6.72;;
37645;SDS011;23489;49.600;6.138;2022-09-21T05:29:37;7.18;;;5.30;;
37645;SDS011;23489;49.600;6.138;2022-09-21T05:32:12;6.60;;;4.90;;
37645;SDS011;23489;49.600;6.138;2022-09-21T05:34:52;7.93;;;4.60;;
37645;SDS011;23489;49.600;6.138;2022-09-21T05:40:21;6.55;;;4.85;;
37645;SDS011;23489;49.600;6.138;2022-09-21T05:42:47;5.75;;;4.45;;
37645;SDS011;23489;49.600;6.138;2022-09-21T05:45:14;6.35;;;4.50;;
37645;SDS011;23489;49.600;6.138;2022-09-21T05:53:49;7.10;;;4.63;;
37645;SDS011;23489;49.600;6.138;2022-09-21T06:04:50;6.75;;;5.03;;
37645;SDS011;23489;49.600;6.138;2022-09-21T06:07:18;8.57;;;5.00;;
37645;SDS011;23489;49.600;6.138;2022-09-21T06:09:44;10.80;;;5.53;;
37645;SDS011;23489;49.600;6.138;2022-09-21T06:12:09;9.05;;;5.50;;
37645;SDS011;23489;49.600;6.138;2022-09-21T06:14:35;13.40;;;6.18;;
37645;SDS011;23489;49.600;6.138;2022-09-21T06:17:02;9.95;;;6.05;;
37645;SDS011;23489;49.600;6.138;2022-09-21T06:19:27;8.98;;;5.15;;
37645;SDS011;23489;49.600;6.138;2022-09-21T06:21:53;7.93;;;5.30;;
37645;SDS011;23489;49.600;6.138;2022-09-21T06:24:19;7.68;;;5.05;;
37645;SDS011;23489;49.600;6.138;2022-09-21T06:26:44;8.13;;;5.60;;
37645;SDS011;23489;49.600;6.138;2022-09-21T06:29:10;8.38;;;5.20;;
37645;SDS011;23489;49.600;6.138;2022-09-21T06:53:27;7.82;;;5.30;;
37645;SDS011;23489;49.600;6.138;2022-09-21T06:56:04;8.90;;;4.65;;
37645;SDS011;23489;49.600;6.138;2022-09-21T06:58:31;6.90;;;4.35;;
37645;SDS011;23489;49.600;6.138;2022-09-21T07:01:04;6.63;;;4.70;;
37645;SDS011;23489;49.600;6.138;2022-09-21T07:03:34;8.00;;;4.13;;
37645;SDS011;23489;49.600;6.138;2022-09-21T07:08:26;7.00;;;5.35;;
37645;SDS011;23489;49.600;6.138;2022-09-21T07:10:52;8.10;;;5.13;;
37645;SDS011;23489;49.600;6.138;2022-09-21T07:20:41;7.28;;;3.65;;
37645;SDS011;23489;49.600;6.138;2022-09-21T07:23:13;8.75;;;3.72;;
37645;SDS011;23489;49.600;6.138;2022-09-21T07:25:44;7.40;;;3.80;;
37645;SDS011;23489;49.600;6.138;2022-09-21T07:28:12;7.43;;;3.80;;
37645;SDS011;23489;49.600;6.138;2022-09-21T07:30:38;7.35;;;4.18;;
37645;SDS011;23489;49.600;6.138;2022-09-21T07:33:05;5.93;;;3.80;;
37645;SDS011;23489;49.600;6.138;2022-09-21T07:35:31;6.82;;;4.20;;
37645;SDS011;23489;49.600;6.138;2022-09-21T07:37:58;8.00;;;3.70;;
37645;SDS011;23489;49.600;6.138;2022-09-21T07:40:25;7.18;;;3.63;;
37645;SDS011;23489;49.600;6.138;2022-09-21T07:42:51;5.20;;;3.67;;
37645;SDS011;23489;49.600;6.138;2022-09-21T07:45:17;6.40;;;3.67;;
37645;SDS011;23489;49.600;6.138;2022-09-21T07:47:43;7.90;;;3.67;;
37645;SDS011;23489;49.600;6.138;2022-09-21T07:50:08;5.93;;;3.30;;
37645;SDS011;23489;49.600;6.138;2022-09-21T07:52:34;7.87;;;3.40;;
37645;SDS011;23489;49.600;6.138;2022-09-21T07:55:00;5.33;;;3.10;;
37645;SDS011;23489;49.600;6.138;2022-09-21T07:57:26;6.15;;;3.00;;
37645;SDS011;23489;49.600;6.138;2022-09-21T08:00:11;6.70;;;3.17;;
37645;SDS011;23489;49.600;6.138;2022-09-21T08:02:37;4.65;;;3.20;;
37645;SDS011;23489;49.600;6.138;2022-09-21T08:05:02;6.65;;;3.20;;
37645;SDS011;23489;49.600;6.138;2022-09-21T08:07:28;5.60;;;3.20;;
37645;SDS011;23489;49.600;6.138;2022-09-21T08:09:54;5.03;;;2.80;;
37645;SDS011;23489;49.600;6.138;2022-09-21T08:12:19;5.05;;;2.60;;
37645;SDS011;23489;49.600;6.138;2022-09-21T08:14:45;5.95;;;2.75;;
37645;SDS011;23489;49.600;6.138;2022-09-21T08:17:12;4.57;;;2.47;;
37645;SDS011;23489;49.600;6.138;2022-09-21T08:19:38;3.97;;;2.22;;
37645;SDS011;23489;49.600;6.138;2022-09-21T08:22:04;4.88;;;2.40;;
37645;SDS011;23489;49.600;6.138;2022-09-21T08:24:30;5.38;;;2.10;;
37645;SDS011;23489;49.600;6.138;2022-09-21T08:26:57;7.20;;;2.60;;
37645;SDS011;23489;49.600;6.138;2022-09-21T08:29:23;4.60;;;2.20;;
37645;SDS011;23489;49.600;6.138;2022-09-21T08:31:49;5.18;;;1.90;;
37645;SDS011;23489;49.600;6.138;2022-09-21T08:34:16;4.95;;;2.10;;
37645;SDS011;23489;49.600;6.138;2022-09-21T08:36:43;5.40;;;2.10;;
37645;SDS011;23489;49.600;6.138;2022-09-21T08:39:10;4.13;;;1.63;;
37645;SDS011;23489;49.600;6.138;2022-09-21T08:44:24;4.35;;;1.70;;
37645;SDS011;23489;49.600;6.138;2022-09-21T08:47:13;3.88;;;1.60;;
37645;SDS011;23489;49.600;6.138;2022-09-21T08:50:00;2.90;;;1.67;;
37645;SDS011;23489;49.600;6.138;2022-09-21T08:52:28;4.13;;;1.63;;
37645;SDS011;23489;49.600;6.138;2022-09-21T08:55:05;3.07;;;1.47;;
37645;SDS011;23489;49.600;6.138;2022-09-21T08:57:38;2.83;;;1.30;;
37645;SDS011;23489;49.600;6.138;2022-09-21T09:00:06;4.33;;;1.70;;
37645;SDS011;23489;49.600;6.138;2022-09-21T09:08:30;5.20;;;1.63;;
37645;SDS011;23489;49.600;6.138;2022-09-21T09:17:10;3.55;;;1.35;;
37645;SDS011;23489;49.600;6.138;2022-09-21T09:19:59;3.45;;;1.40;;
37645;SDS011;23489;49.600;6.138;2022-09-21T09:22:30;3.05;;;1.52;;
37645;SDS011;23489;49.600;6.138;2022-09-21T09:25:02;3.60;;;1.50;;
37645;SDS011;23489;49.600;6.138;2022-09-21T09:27:31;2.88;;;1.73;;
37645;SDS011;23489;49.600;6.138;2022-09-21T09:32:48;2.75;;;1.50;;
37645;SDS011;23489;49.600;6.138;2022-09-21T09:35:30;2.63;;;1.30;;
37645;SDS011;23489;49.600;6.138;2022-09-21T09:38:22;3.38;;;1.50;;
37645;SDS011;23489;49.600;6.138;2022-09-21T09:52:23;3.78;;;1.70;;
37645;SDS011;23489;49.600;6.138;2022-09-21T09:54:50;2.72;;;1.55;;
37645;SDS011;23489;49.600;6.138;2022-09-21T09:57:18;5.07;;;1.70;;
37645;SDS011;23489;49.600;6.138;2022-09-21T09:59:52;2.17;;;1.20;;
37645;SDS011;23489;49.600;6.138;2022-09-21T10:02:21;1.87;;;1.37;;
37645;SDS011;23489;49.600;6.138;2022-09-21T10:04:58;3.03;;;1.40;;
37645;SDS011;23489;49.600;6.138;2022-09-21T10:07:42;3.78;;;1.60;;
37645;SDS011;23489;49.600;6.138;2022-09-21T10:15:20;5.88;;;1.60;;
37645;SDS011;23489;49.600;6.138;2022-09-21T10:17:56;4.55;;;1.50;;
37645;SDS011;23489;49.600;6.138;2022-09-21T10:20:27;3.90;;;1.10;;
37645;SDS011;23489;49.600;6.138;2022-09-21T10:22:55;2.70;;;1.40;;
37645;SDS011;23489;49.600;6.138;2022-09-21T10:25:23;3.70;;;1.70;;
37645;SDS011;23489;49.600;6.138;2022-09-21T10:27:49;3.33;;;1.45;;
37645;SDS011;23489;49.600;6.138;2022-09-21T10:30:49;4.20;;;1.80;;
37645;SDS011;23489;49.600;6.138;2022-09-21T10:33:17;3.42;;;1.67;;
37645;SDS011;23489;49.600;6.138;2022-09-21T10:35:48;3.45;;;1.60;;
37645;SDS011;23489;49.600;6.138;2022-09-21T10:38:16;3.28;;;1.70;;
37645;SDS011;23489;49.600;6.138;2022-09-21T10:40:43;3.22;;;2.00;;
37645;SDS011;23489;49.600;6.138;2022-09-21T10:46:06;3.75;;;1.50;;
37645;SDS011;23489;49.600;6.138;2022-09-21T10:48:32;2.85;;;1.40;;
37645;SDS011;23489;49.600;6.138;2022-09-21T10:50:59;3.40;;;1.40;;
37645;SDS011;23489;49.600;6.138;2022-09-21T10:58:28;2.78;;;1.40;;
37645;SDS011;23489;49.600;6.138;2022-09-21T11:00:55;3.60;;;1.33;;
37645;SDS011;23489;49.600;6.138;2022-09-21T11:06:12;3.33;;;1.30;;
37645;SDS011;23489;49.600;6.138;2022-09-21T11:08:48;3.58;;;1.30;;
37645;SDS011;23489;49.600;6.138;2022-09-21T11:14:17;2.97;;;1.30;;
37645;SDS011;23489;49.600;6.138;2022-09-21T11:19:47;1.30;;;1.00;;
37645;SDS011;23489;49.600;6.138;2022-09-21T13:19:16;3.78;;;1.27;;
37645;SDS011;23489;49.600;6.138;2022-09-21T13:21:46;3.40;;;1.27;;
37645;SDS011;23489;49.600;6.138;2022-09-21T13:24:38;2.70;;;1.35;;
37645;SDS011;23489;49.600;6.138;2022-09-21T13:27:09;2.57;;;1.20;;
37645;SDS011;23489;49.600;6.138;2022-09-21T13:29:36;2.90;;;1.30;;
37645;SDS011;23489;49.600;6.138;2022-09-21T13:34:36;4.30;;;1.70;;
37645;SDS011;23489;49.600;6.138;2022-09-21T13:37:45;3.65;;;1.30;;
37645;SDS011;23489;49.600;6.138;2022-09-21T13:47:34;2.00;;;1.05;;
37645;SDS011;23489;49.600;6.138;2022-09-21T13:53:17;2.38;;;1.35;;
37645;SDS011;23489;49.600;6.138;2022-09-21T13:55:48;1.88;;;1.15;;
37645;SDS011;23489;49.600;6.138;2022-09-21T13:58:21;2.00;;;1.38;;
37645;SDS011;23489;49.600;6.138;2022-09-21T14:04:14;2.45;;;1.10;;
37645;SDS011;23489;49.600;6.138;2022-09-21T14:08:47;2.42;;;1.17;;
37645;SDS011;23489;49.600;6.138;2022-09-21T14:11:41;1.42;;;1.00;;
37645;SDS011;23489;49.600;6.138;2022-09-21T14:16:57;2.47;;;1.20;;
37645;SDS011;23489;49.600;6.138;2022-09-21T14:27:01;1.85;;;1.00;;
37645;SDS011;23489;49.600;6.138;2022-09-21T14:29:40;2.45;;;1.08;;
37645;SDS011;23489;49.600;6.138;2022-09-21T14:32:12;3.13;;;1.17;;
37645;SDS011;23489;49.600;6.138;2022-09-21T14:34:41;2.17;;;1.20;;
37645;SDS011;23489;49.600;6.138;2022-09-21T14:37:16;1.77;;;1.17;;
37645;SDS011;23489;49.600;6.138;2022-09-21T14:39:51;2.55;;;1.25;;
37645;SDS011;23489;49.600;6.138;2022-09-21T14:42:18;4.10;;;1.27;;
37645;SDS011;23489;49.600;6.138;2022-09-21T14:44:48;2.65;;;1.10;;
37645;SDS011;23489;49.600;6.138;2022-09-21T14:50:22;2.13;;;1.00;;
37645;SDS011;23489;49.600;6.138;2022-09-21T14:58:27;3.25;;;1.23;;
37645;SDS011;23489;49.600;6.138;2022-09-21T15:06:50;1.97;;;1.10;;
37645;SDS011;23489;49.600;6.138;2022-09-21T15:12:50;1.77;;;1.10;;
37645;SDS011;23489;49.600;6.138;2022-09-21T15:17:58;2.70;;;0.98;;
37645;SDS011;23489;49.600;6.138;2022-09-21T15:20:27;2.85;;;1.10;;
37645;SDS011;23489;49.600;6.138;2022-09-21T15:22:54;1.73;;;0.93;;
37645;SDS011;23489;49.600;6.138;2022-09-21T15:25:22;3.47;;;2.40;;
37645;SDS011;23489;49.600;6.138;2022-09-21T15:27:55;2.40;;;0.93;;
37645;SDS011;23489;49.600;6.138;2022-09-21T15:30:22;1.90;;;0.90;;
37645;SDS011;23489;49.600;6.138;2022-09-21T15:32:54;1.92;;;0.88;;
37645;SDS011;23489;49.600;6.138;2022-09-21T15:35:26;2.90;;;1.23;;
37645;SDS011;23489;49.600;6.138;2022-09-21T15:37:55;3.13;;;1.00;;
37645;SDS011;23489;49.600;6.138;2022-09-21T15:45:26;0.70;;;0.70;;
37645;SDS011;23489;49.600;6.138;2022-09-21T17:46:06;2.90;;;1.20;;
37645;SDS011;23489;49.600;6.138;2022-09-21T17:48:39;2.25;;;1.17;;
37645;SDS011;23489;49.600;6.138;2022-09-21T17:51:05;3.45;;;1.52;;
37645;SDS011;23489;49.600;6.138;2022-09-21T17:53:31;2.25;;;1.55;;
37645;SDS011;23489;49.600;6.138;2022-09-21T17:56:11;2.67;;;1.67;;
37645;SDS011;23489;49.600;6.138;2022-09-21T18:01:19;3.03;;;1.80;;
37645;SDS011;23489;49.600;6.138;2022-09-21T18:03:47;6.07;;;2.15;;
37645;SDS011;23489;49.600;6.138;2022-09-21T18:06:13;4.90;;;1.90;;
37645;SDS011;23489;49.600;6.138;2022-09-21T18:08:39;5.10;;;1.75;;
37645;SDS011;23489;49.600;6.138;2022-09-21T18:11:11;4.65;;;2.00;;
37645;SDS011;23489;49.600;6.138;2022-09-21T18:19:21;8.80;;;4.60;;
37645;SDS011;23489;49.600;6.138;2022-09-21T18:24:38;3.65;;;2.03;;
37645;SDS011;23489;49.600;6.138;2022-09-21T18:27:04;4.20;;;1.70;;
37645;SDS011;23489;49.600;6.138;2022-09-21T18:29:31;6.43;;;2.70;;
37645;SDS011;23489;49.600;6.138;2022-09-21T18:37:45;9.57;;;5.88;;
37645;SDS011;23489;49.600;6.138;2022-09-21T18:46:43;3.72;;;2.33;;
37645;SDS011;23489;49.600;6.138;2022-09-21T18:55:16;3.60;;;2.03;;
37645;SDS011;23489;49.600;6.138;2022-09-21T18:57:49;3.85;;;1.85;;
37645;SDS011;23489;49.600;6.138;2022-09-21T19:00:15;3.92;;;1.70;;
37645;SDS011;23489;49.600;6.138;2022-09-21T19:02:41;7.13;;;5.30;;
37645;SDS011;23489;49.600;6.138;2022-09-21T19:05:10;7.32;;;2.28;;
37645;SDS011;23489;49.600;6.138;2022-09-21T19:07:43;4.32;;;1.98;;
37645;SDS011;23489;49.600;6.138;2022-09-21T19:10:26;3.83;;;1.60;;
37645;SDS011;23489;49.600;6.138;2022-09-21T23:04:14;2.45;;;1.92;;
37645;SDS011;23489;49.600;6.138;2022-09-21T23:06:42;2.58;;;1.95;;
37645;SDS011;23489;49.600;6.138;2022-09-21T23:09:14;4.25;;;2.08;;
37645;SDS011;23489;49.600;6.138;2022-09-21T23:11:43;2.75;;;2.20;;
37645;SDS011;23489;49.600;6.138;2022-09-21T23:14:13;2.13;;;1.80;;
37645;SDS011;23489;49.600;6.138;2022-09-21T23:16:40;2.75;;;2.10;;
37645;SDS011;23489;49.600;6.138;2022-09-21T23:19:07;3.50;;;1.90;;
37645;SDS011;23489;49.600;6.138;2022-09-21T23:21:40;3.30;;;1.90;;
37645;SDS011;23489;49.600;6.138;2022-09-21T23:24:07;4.50;;;2.00;;
37645;SDS011;23489;49.600;6.138;2022-09-21T23:26:33;3.05;;;2.00;;
37645;SDS011;23489;49.600;6.138;2022-09-21T23:29:00;2.08;;;1.60;;
37645;SDS011;23489;49.600;6.138;2022-09-21T23:31:28;3.30;;;2.40;;
37645;SDS011;23489;49.600;6.138;2022-09-21T23:33:56;2.40;;;1.85;;
37645;SDS011;23489;49.600;6.138;2022-09-21T23:36:25;3.88;;;2.08;;
37645;SDS011;23489;49.600;6.138;2022-09-21T23:38:51;2.58;;;2.20;;
37645;SDS011;23489;49.600;6.138;2022-09-21T23:41:19;2.58;;;2.38;;
37645;SDS011;23489;49.600;6.138;2022-09-21T23:43:46;2.83;;;2.28;;
37645;SDS011;23489;49.600;6.138;2022-09-21T23:46:13;3.58;;;2.40;;
37645;SDS011;23489;49.600;6.138;2022-09-21T23:48:41;4.55;;;2.30;;
37645;SDS011;23489;49.600;6.138;2022-09-21T23:51:07;3.88;;;2.90;;
37645;SDS011;23489;49.600;6.138;2022-09-21T23:53:34;5.50;;;3.00;;
37645;SDS011;23489;49.600;6.138;2022-09-21T23:56:00;7.30;;;2.75;;
37645;SDS011;23489;49.600;6.138;2022-09-21T23:58:26;5.00;;;2.63;;
